Time;durP1;ratioP1;P1;durP2;ratioP2;P2;SDS_P1;SDS_P2;PMS_P1;PMS_P2;Temp;Humidity;BMP_temperature;BMP_pressure;BME280_temperature;BME280_humidity;BME280_pressure;Samples;Min_cycle;Max_cycle;Signal;HPM_P1;HPM_P2
2022/01/18 00:00:45;;;;;;;;;63.00;52.00;;;;;4.09;90.98;103623.28;5094609;27;45348;-67
2022/01/18 00:03:11;;;;;;;;;59.67;49.00;;;;;4.10;90.95;103628.56;5097937;27;45451;-67
2022/01/18 00:05:36;;;;;;;;;57.33;45.67;;;;;3.98;90.62;103620.13;5097939;27;45419;-67
2022/01/18 00:08:03;;;;;;;;;69.00;57.33;;;;;3.95;91.75;103610.44;5091651;27;45384;-67
2022/01/18 00:10:31;;;;;;;;;54.67;45.00;;;;;4.01;90.38;103628.09;5056350;28;45370;-67
2022/01/18 00:15:37;;;;;;;;;63.67;49.33;;;;;3.95;91.23;103640.81;5056351;28;45357;-67
2022/01/18 00:23:10;;;;;;;;;62.67;50.00;;;;;3.86;91.03;103622.97;5056228;28;45479;-67
2022/01/18 00:25:39;;;;;;;;;63.33;50.00;;;;;3.95;91.59;103643.41;5056508;28;45314;-67
2022/01/18 00:28:06;;;;;;;;;61.33;48.33;;;;;3.89;91.12;103636.16;5055857;28;46313;-67
2022/01/18 00:36:21;;;;;;;;;65.67;50.67;;;;;3.85;92.74;103649.88;5077012;28;45530;-67
2022/01/18 00:38:48;;;;;;;;;62.00;50.67;;;;;3.81;93.58;103638.38;5076822;28;45477;-67
2022/01/18 00:41:15;;;;;;;;;68.33;51.67;;;;;3.83;93.76;103625.44;5077381;28;45583;-67
2022/01/18 00:43:42;;;;;;;;;57.67;48.67;;;;;3.92;93.42;103630.22;5076972;28;45436;-67
2022/01/18 00:46:09;;;;;;;;;64.67;48.33;;;;;3.95;93.47;103632.97;5077036;28;45406;-67
2022/01/18 00:48:36;;;;;;;;;61.67;47.33;;;;;4.03;93.99;103639.50;5076404;28;46523;-67
2022/01/18 00:51:04;;;;;;;;;62.00;48.67;;;;;4.04;93.87;103646.50;5076949;28;45284;-67
2022/01/18 00:53:35;;;;;;;;;65.33;48.33;;;;;4.03;93.61;103626.47;5077162;28;45451;-67
2022/01/18 00:56:19;;;;;;;;;61.00;47.00;;;;;4.11;92.95;103634.66;5076859;28;45404;-67
2022/01/18 00:58:47;;;;;;;;;56.33;45.67;;;;;4.14;94.55;103642.66;5076661;28;46466;-67
2022/01/18 01:01:14;;;;;;;;;61.00;48.33;;;;;4.19;94.96;103647.28;5076822;28;45460;-67
2022/01/18 01:03:39;;;;;;;;;56.00;41.00;;;;;4.20;94.17;103632.53;5076950;28;45476;-67
2022/01/18 01:06:06;;;;;;;;;58.33;44.67;;;;;4.30;93.64;103640.00;5076919;28;45388;-67
2022/01/18 01:08:34;;;;;;;;;53.00;42.33;;;;;4.29;94.12;103634.72;5076880;28;46731;-67
2022/01/18 01:10:59;;;;;;;;;62.00;47.00;;;;;4.36;94.49;103639.41;5067889;28;45357;-67
2022/01/18 01:13:27;;;;;;;;;59.67;47.67;;;;;4.43;94.57;103638.00;5035288;28;45498;-67
2022/01/18 01:34:41;;;;;;;;;52.00;44.33;;;;;4.85;94.34;103636.59;5035357;28;45417;-68
2022/01/18 01:45:04;;;;;;;;;52.33;42.67;;;;;5.06;93.77;103621.03;5035048;28;45273;-68
2022/01/18 01:47:37;;;;;;;;;58.67;46.00;;;;;5.11;94.11;103633.41;5035192;28;45413;-67
2022/01/18 01:50:08;;;;;;;;;60.00;45.67;;;;;5.15;93.75;103637.97;5053207;28;47453;-67
2022/01/18 01:52:34;;;;;;;;;56.33;42.00;;;;;5.10;93.34;103619.47;5055028;28;45413;-68
2022/01/18 01:55:00;;;;;;;;;41.00;35.67;;;;;5.05;93.13;103607.91;5055037;28;45330;-67
2022/01/18 01:57:25;;;;;;;;;53.00;42.33;;;;;5.23;92.82;103639.22;5055116;28;45316;-67
2022/01/18 01:59:51;;;;;;;;;51.33;40.00;;;;;5.21;93.18;103633.94;5055066;28;46098;-67
2022/01/18 02:02:17;;;;;;;;;56.33;43.33;;;;;5.21;93.50;103636.53;5053915;28;45255;-67
2022/01/18 02:04:42;;;;;;;;;49.33;40.00;;;;;5.16;92.86;103622.34;5055078;28;45381;-67
2022/01/18 02:07:08;;;;;;;;;58.67;43.00;;;;;5.20;92.87;103629.50;5055441;28;45344;-67
2022/01/18 02:09:34;;;;;;;;;57.33;43.00;;;;;5.19;92.15;103617.28;5054569;28;46407;-68
2022/01/18 02:12:00;;;;;;;;;53.33;40.00;;;;;5.30;92.93;103636.06;5054873;27;45318;-67
2022/01/18 02:14:28;;;;;;;;;52.67;39.00;;;;;5.35;92.41;103633.66;5054701;28;45443;-68
2022/01/18 02:22:22;;;;;;;;;53.33;45.00;;;;;5.29;91.45;103618.59;5054744;28;45417;-67
2022/01/18 02:24:48;;;;;;;;;48.00;39.00;;;;;5.37;91.27;103635.53;5054479;28;45339;-67
2022/01/18 02:27:13;;;;;;;;;54.67;43.00;;;;;5.31;91.25;103637.84;5054851;28;45280;-67
2022/01/18 02:29:39;;;;;;;;;46.67;40.33;;;;;5.30;91.85;103625.63;5054596;28;45633;-67
2022/01/18 02:32:05;;;;;;;;;54.33;42.33;;;;;5.29;92.26;103613.38;5054144;28;45414;-68
2022/01/18 02:34:31;;;;;;;;;53.33;45.00;;;;;5.36;92.54;103620.66;5054655;27;45303;-68
2022/01/18 02:36:59;;;;;;;;;54.00;42.67;;;;;5.47;92.08;103621.13;5054575;28;45333;-68
2022/01/18 02:39:27;;;;;;;;;54.33;40.00;;;;;5.50;92.11;103628.22;5054278;28;47157;-68
2022/01/18 02:41:59;;;;;;;;;43.33;38.00;;;;;5.46;91.53;103618.44;5054399;28;45337;-67
2022/01/18 02:44:27;;;;;;;;;54.00;42.67;;;;;5.49;91.54;103622.13;5054337;28;45271;-67
2022/01/18 02:46:53;;;;;;;;;56.67;40.67;;;;;5.45;91.63;103608.84;5054621;28;45359;-67
2022/01/18 02:49:19;;;;;;;;;54.33;41.67;;;;;5.50;92.25;103609.94;5054222;27;46473;-67
2022/01/18 02:51:45;;;;;;;;;49.67;39.33;;;;;5.50;91.94;103602.09;5054161;28;45440;-67
2022/01/18 02:54:14;;;;;;;;;46.00;38.33;;;;;5.58;91.83;103606.81;5054511;28;45425;-67
2022/01/18 02:56:46;;;;;;;;;54.67;40.33;;;;;5.50;91.61;103578.56;5054331;28;45198;-67
2022/01/18 03:04:41;;;;;;;;;57.00;46.00;;;;;5.61;90.86;103599.97;5072903;27;45437;-67
2022/01/18 03:07:07;;;;;;;;;47.67;39.00;;;;;5.63;91.25;103590.47;5057518;28;45434;-67
2022/01/18 03:09:33;;;;;;;;;53.00;42.33;;;;;5.54;90.78;103589.22;5056726;28;46252;-67
2022/01/18 03:11:58;;;;;;;;;52.00;39.67;;;;;5.53;90.88;103579.63;5056887;28;45338;-67
2022/01/18 03:14:24;;;;;;;;;51.00;39.33;;;;;5.55;90.87;103591.03;5056939;28;46185;-67
2022/01/18 03:16:49;;;;;;;;;45.33;38.00;;;;;5.56;91.53;103603.28;5057235;28;45152;-67
2022/01/18 03:19:15;;;;;;;;;46.67;41.67;;;;;5.57;91.60;103591.09;5056958;28;46329;-68
2022/01/18 03:21:41;;;;;;;;;48.00;38.33;;;;;5.61;90.98;103586.91;5056991;28;45298;-67
2022/01/18 03:24:46;;;;;;;;;49.33;37.67;;;;;5.68;90.93;103602.03;5056954;28;45236;-67
2022/01/18 03:29:42;;;;;;;;;50.00;37.00;;;;;5.72;90.82;103606.53;5056597;28;45420;-67
2022/01/18 03:32:08;;;;;;;;;49.00;39.33;;;;;5.72;90.92;103601.31;5056927;28;45470;-67
2022/01/18 03:34:34;;;;;;;;;47.00;41.67;;;;;5.70;91.78;103600.38;5039063;28;45414;-68
2022/01/18 03:37:00;;;;;;;;;40.67;37.00;;;;;5.68;91.63;103584.63;5057101;28;45411;-67
2022/01/18 03:39:25;;;;;;;;;47.00;39.00;;;;;5.73;91.63;103598.75;5056461;28;46420;-67
2022/01/18 03:41:55;;;;;;;;;42.33;38.33;;;;;5.69;91.51;103591.63;5056782;28;45194;-67
2022/01/18 03:44:24;;;;;;;;;61.00;50.33;;;;;5.80;91.27;103606.91;5056721;28;45401;-67
2022/01/18 03:46:52;;;;;;;;;60.33;45.33;;;;;5.81;91.05;103608.66;5056923;28;45278;-67
2022/01/18 03:49:19;;;;;;;;;55.33;42.00;;;;;5.80;91.40;103607.78;5056174;27;45301;-67
2022/01/18 03:51:45;;;;;;;;;55.00;42.00;;;;;5.53;91.48;103565.63;5056389;28;45390;-67
2022/01/18 03:54:13;;;;;;;;;42.33;38.67;;;;;5.83;91.41;103617.47;5056496;28;45288;-67
2022/01/18 03:56:38;;;;;;;;;57.67;44.00;;;;;5.78;91.21;103603.28;5056952;28;45393;-68
2022/01/18 03:59:03;;;;;;;;;46.67;40.00;;;;;5.84;91.14;103614.94;5056372;28;45440;-67
2022/01/18 04:01:29;;;;;;;;;48.67;39.00;;;;;5.79;91.16;103605.09;5056345;28;45406;-67
2022/01/18 04:03:54;;;;;;;;;40.67;36.33;;;;;5.81;90.77;103614.81;5056790;28;45289;-68
2022/01/18 04:06:19;;;;;;;;;56.00;41.67;;;;;5.81;91.40;103612.19;5027534;28;45448;-67
2022/01/18 04:08:45;;;;;;;;;53.00;42.00;;;;;5.74;90.99;103597.94;5026419;28;45441;-68
2022/01/18 04:11:10;;;;;;;;;45.67;41.33;;;;;5.75;91.42;103601.44;5015856;28;45158;-68
2022/01/18 04:13:36;;;;;;;;;54.00;39.67;;;;;5.85;91.85;103614.13;5016228;28;45318;-67
2022/01/18 04:16:01;;;;;;;;;53.67;39.00;;;;;5.90;91.15;103615.19;5016581;28;45229;-68
2022/01/18 04:18:34;;;;;;;;;41.00;35.67;;;;;5.85;90.94;103613.19;5016138;28;46355;-68
2022/01/18 04:29:11;;;;;;;;;51.33;42.67;;;;;5.90;92.02;103617.81;4974483;28;45943;-68
2022/01/18 04:31:36;;;;;;;;;47.67;39.00;;;;;5.90;91.60;103615.19;4974364;28;45754;-67
2022/01/18 04:34:02;;;;;;;;;44.33;38.33;;;;;5.95;91.42;103614.50;4974671;28;45350;-67
2022/01/18 04:36:28;;;;;;;;;43.00;35.67;;;;;5.89;91.57;103608.16;4974552;28;45382;-67
2022/01/18 04:38:55;;;;;;;;;54.67;43.33;;;;;5.95;92.26;103617.09;4974154;28;45491;-67
2022/01/18 04:41:27;;;;;;;;;46.67;40.00;;;;;5.98;92.09;103622.50;4974447;28;45349;-67
2022/01/18 04:49:11;;;;;;;;;49.00;38.67;;;;;6.04;91.43;103621.06;4973820;28;45554;-67
2022/01/18 04:51:37;;;;;;;;;48.00;37.33;;;;;5.96;91.30;103600.59;4974330;28;45409;-67
2022/01/18 04:54:06;;;;;;;;;55.67;41.33;;;;;5.95;91.36;103609.25;4974300;28;45384;-68
2022/01/18 04:59:05;;;;;;;;;50.00;42.00;;;;;5.97;92.42;103615.44;5012481;28;45348;-68
2022/01/18 05:01:31;;;;;;;;;58.00;49.00;;;;;6.01;92.46;103610.47;5015399;28;45428;-67
2022/01/18 05:03:56;;;;;;;;;50.33;38.00;;;;;6.05;92.57;103614.97;5015836;28;45265;-67
2022/01/18 05:06:22;;;;;;;;;54.00;38.33;;;;;6.06;91.99;103619.38;5016000;28;45339;-67
2022/01/18 05:08:47;;;;;;;;;53.00;41.00;;;;;5.92;91.99;103603.09;5015534;28;46356;-68
2022/01/18 05:11:16;;;;;;;;;56.33;39.33;;;;;6.10;92.08;103636.13;5015779;28;45275;-67
2022/01/18 05:23:56;;;;;;;;;55.33;39.33;;;;;6.14;93.38;103640.63;5014292;28;45489;-67
2022/01/18 05:26:22;;;;;;;;;56.00;41.00;;;;;6.20;93.37;103635.69;5015620;28;45280;-68
2022/01/18 05:28:47;;;;;;;;;43.67;37.33;;;;;6.22;92.36;103633.13;5015318;28;45349;-68
2022/01/18 05:31:13;;;;;;;;;53.67;43.33;;;;;6.18;92.17;103628.59;5015122;28;45225;-68
2022/01/18 05:33:40;;;;;;;;;44.00;38.67;;;;;6.11;92.57;103635.25;5015686;28;45210;-68
2022/01/18 05:36:06;;;;;;;;;57.33;41.33;;;;;6.10;93.22;103639.63;5015382;28;45598;-68
2022/01/18 05:38:33;;;;;;;;;54.67;42.00;;;;;6.02;94.04;103619.19;5015148;28;46532;-67
2022/01/18 05:41:02;;;;;;;;;58.67;44.00;;;;;6.08;93.30;103609.91;5015261;28;45801;-67
2022/01/18 05:43:28;;;;;;;;;40.00;36.67;;;;;6.13;92.38;103631.00;5015309;28;45841;-67
2022/01/18 05:45:53;;;;;;;;;51.33;39.00;;;;;6.14;92.93;103637.13;5015605;28;45253;-67
2022/01/18 05:48:19;;;;;;;;;52.00;42.33;;;;;6.10;93.62;103630.88;5014920;28;45311;-68
2022/01/18 05:50:44;;;;;;;;;53.33;40.33;;;;;6.14;93.79;103630.16;5015259;28;45173;-68
2022/01/18 05:53:09;;;;;;;;;51.67;38.33;;;;;6.14;93.64;103630.16;5015385;28;45508;-68
2022/01/18 05:55:35;;;;;;;;;47.00;38.33;;;;;6.16;93.99;103636.38;5015257;28;45233;-67
2022/01/18 05:58:00;;;;;;;;;55.00;44.00;;;;;6.21;93.92;103640.06;5014947;28;45519;-68
2022/01/18 06:00:28;;;;;;;;;47.00;39.00;;;;;6.23;93.65;103630.56;5014529;28;45349;-67
2022/01/18 06:08:08;;;;;;;;;52.33;34.67;;;;;6.26;92.27;103638.53;5014817;28;45229;-67
2022/01/18 06:10:33;;;;;;;;;42.67;35.67;;;;;6.17;92.76;103632.94;5014834;28;45232;-67
2022/01/18 06:13:03;;;;;;;;;60.33;42.00;;;;;6.20;93.13;103627.81;5015072;28;45269;-67
2022/01/18 06:15:32;;;;;;;;;52.67;44.00;;;;;6.24;92.63;103634.06;5014798;28;45493;-67
2022/01/18 06:17:58;;;;;;;;;53.67;42.00;;;;;6.21;93.11;103634.81;5014342;28;46650;-67
2022/01/18 06:20:24;;;;;;;;;58.67;47.33;;;;;6.18;92.69;103626.84;5014510;28;45281;-67
2022/01/18 06:22:51;;;;;;;;;52.00;41.33;;;;;6.18;92.70;103625.97;5014422;28;45487;-67
2022/01/18 06:25:20;;;;;;;;;61.33;46.00;;;;;6.17;92.82;103624.16;5014647;28;45433;-67
2022/01/18 06:27:46;;;;;;;;;63.00;47.67;;;;;6.21;92.83;103636.56;5014639;28;46158;-67
2022/01/18 06:30:12;;;;;;;;;80.00;62.00;;;;;6.27;93.04;103642.03;5014238;28;45229;-67
2022/01/18 06:32:44;;;;;;;;;59.33;48.67;;;;;6.30;92.98;103644.78;5014605;28;45275;-67
2022/01/18 06:35:11;;;;;;;;;64.00;47.67;;;;;6.26;92.24;103637.66;4996500;28;45185;-67
2022/01/18 06:37:38;;;;;;;;;55.33;42.33;;;;;6.25;92.61;103649.81;5014092;28;45432;-67
2022/01/18 06:40:04;;;;;;;;;28.67;25.33;;;;;6.23;92.28;103640.13;5014367;28;45419;-67
2022/01/18 06:42:31;;;;;;;;;54.67;40.00;;;;;6.21;93.08;103642.66;5014256;28;45299;-67
2022/01/18 06:44:56;;;;;;;;;50.33;40.33;;;;;6.21;92.12;103640.06;5014375;28;45351;-67
2022/01/18 06:47:22;;;;;;;;;56.00;45.33;;;;;6.24;92.18;103648.03;5014129;28;46289;-67
2022/01/18 06:49:47;;;;;;;;;58.00;45.00;;;;;6.22;92.59;103649.69;5014019;28;45438;-67
2022/01/18 06:52:13;;;;;;;;;53.33;43.00;;;;;6.24;92.45;103653.25;5014478;28;45324;-67
2022/01/18 06:54:38;;;;;;;;;62.33;52.00;;;;;6.22;92.89;103647.09;5014602;28;45375;-67
2022/01/18 06:57:04;;;;;;;;;68.00;53.00;;;;;6.26;92.74;103653.34;5014095;28;45437;-67
2022/01/18 06:59:30;;;;;;;;;60.00;47.33;;;;;6.33;92.63;103660.63;5014389;28;45385;-67
2022/01/18 07:01:55;;;;;;;;;63.33;46.33;;;;;6.36;91.79;103659.84;5013972;28;45412;-67
2022/01/18 07:04:21;;;;;;;;;61.00;47.00;;;;;6.27;92.15;103658.66;5014466;28;45271;-67
2022/01/18 07:06:46;;;;;;;;;61.67;45.33;;;;;6.20;92.12;103646.16;5014061;28;45307;-67
2022/01/18 07:09:15;;;;;;;;;65.67;50.67;;;;;6.21;92.88;103645.28;5014065;28;45343;-67
2022/01/18 07:11:41;;;;;;;;;59.00;46.00;;;;;6.24;92.69;103648.03;5014122;28;45353;-67
2022/01/18 07:14:07;;;;;;;;;60.33;47.00;;;;;6.18;92.75;103639.94;5013961;28;45457;-67
2022/01/18 07:16:32;;;;;;;;;58.00;45.00;;;;;6.25;92.48;103641.97;5013630;28;45393;-67
2022/01/18 07:18:58;;;;;;;;;65.67;47.00;;;;;6.26;91.76;103645.50;5013875;28;45413;-67
2022/01/18 07:21:23;;;;;;;;;60.00;49.00;;;;;6.24;92.17;103658.50;4996184;28;45452;-67
2022/01/18 07:23:51;;;;;;;;;61.67;48.00;;;;;6.18;92.73;103655.63;5014194;28;45286;-67
2022/01/18 07:26:17;;;;;;;;;68.33;47.00;;;;;6.21;93.01;103658.38;5013540;28;45321;-67
2022/01/18 07:28:42;;;;;;;;;64.67;48.33;;;;;6.26;92.94;103656.84;5013779;28;45323;-67
2022/01/18 07:31:08;;;;;;;;;68.67;51.00;;;;;6.26;93.07;103648.13;4995843;28;45647;-67
2022/01/18 07:33:36;;;;;;;;;71.67;56.67;;;;;6.26;92.96;103641.16;5013797;28;45502;-68
2022/01/18 07:36:01;;;;;;;;;54.67;43.00;;;;;6.34;92.92;103651.94;5013460;28;46285;-67
2022/01/18 07:38:27;;;;;;;;;59.00;47.33;;;;;6.28;92.43;103643.84;5013432;28;45441;-67
2022/01/18 07:40:53;;;;;;;;;57.67;47.00;;;;;6.28;92.95;103641.22;5013916;28;45451;-67
2022/01/18 07:43:21;;;;;;;;;53.33;44.00;;;;;6.35;92.69;103660.72;5013739;28;45250;-67
2022/01/18 07:45:50;;;;;;;;;56.67;44.33;;;;;6.28;91.65;103659.53;4995426;28;47410;-67
2022/01/18 07:48:21;;;;;;;;;59.00;48.00;;;;;6.20;92.62;103658.31;5016337;28;45471;-67
2022/01/18 07:50:47;;;;;;;;;76.00;58.75;;;;;6.19;93.33;103661.78;5016611;28;45231;-67
2022/01/18 07:53:12;;;;;;;;;59.33;47.00;;;;;6.13;93.40;103641.47;5016793;28;45375;-67
2022/01/18 07:55:38;;;;;;;;;54.33;46.00;;;;;6.23;93.26;103645.34;5016617;28;46358;-67
2022/01/18 07:58:03;;;;;;;;;60.67;47.67;;;;;6.28;92.07;103657.81;5016448;28;45199;-67
2022/01/18 08:00:29;;;;;;;;;68.33;53.67;;;;;6.24;92.31;103666.34;5016550;28;45406;-68
2022/01/18 08:02:54;;;;;;;;;57.67;47.33;;;;;6.20;93.64;103654.00;5016730;28;45508;-68
2022/01/18 08:05:20;;;;;;;;;57.67;43.33;;;;;6.30;93.65;103656.97;5016234;28;45356;-67
2022/01/18 08:07:46;;;;;;;;;60.00;48.00;;;;;6.35;93.84;103672.06;5016398;28;45353;-67
2022/01/18 08:10:13;;;;;;;;;55.00;42.67;;;;;6.37;92.97;103659.91;5015992;28;45330;-67
2022/01/18 08:12:39;;;;;;;;;53.00;42.00;;;;;6.28;92.53;103642.09;5016101;28;45370;-67
2022/01/18 08:15:14;;;;;;;;;52.00;44.00;;;;;6.12;92.64;103615.25;5016256;28;46064;-68
2022/01/18 08:17:41;;;;;;;;;51.33;40.33;;;;;6.37;93.02;103654.69;5015735;28;45375;-68
2022/01/18 08:20:07;;;;;;;;;59.67;46.33;;;;;6.41;93.23;103655.72;5015930;28;45423;-68
2022/01/18 08:22:32;;;;;;;;;57.67;44.33;;;;;6.44;93.18;103659.34;5016473;28;45224;-67
2022/01/18 08:24:58;;;;;;;;;63.67;45.00;;;;;6.42;93.01;103647.03;5015750;28;45444;-67
2022/01/18 08:27:23;;;;;;;;;56.00;42.00;;;;;6.54;92.84;103658.00;5016150;28;45390;-68
2022/01/18 08:29:49;;;;;;;;;57.67;45.00;;;;;6.52;92.38;103650.91;5016224;28;45235;-67
2022/01/18 08:32:16;;;;;;;;;58.00;47.33;;;;;6.46;92.16;103641.09;5016227;28;45462;-67
2022/01/18 08:34:41;;;;;;;;;58.00;46.33;;;;;6.56;91.93;103651.09;5015955;28;46294;-67
2022/01/18 08:37:07;;;;;;;;;56.00;42.67;;;;;6.64;91.60;103659.28;5015778;28;45299;-67
2022/01/18 08:39:32;;;;;;;;;54.00;40.33;;;;;6.55;92.09;103653.66;5016222;28;45386;-68
2022/01/18 08:41:57;;;;;;;;;51.33;40.33;;;;;6.62;92.54;103658.31;5016131;28;45379;-67
2022/01/18 08:44:23;;;;;;;;;65.33;51.00;;;;;6.69;91.78;103667.31;5015758;28;46233;-67
2022/01/18 08:46:48;;;;;;;;;59.33;44.67;;;;;6.58;91.28;103638.97;5015699;28;45447;-67
2022/01/18 08:49:14;;;;;;;;;49.33;42.33;;;;;6.70;91.48;103663.88;5015644;28;45475;-67
2022/01/18 08:51:39;;;;;;;;;60.00;45.00;;;;;6.65;91.95;103653.22;5016068;28;45494;-67
2022/01/18 08:54:05;;;;;;;;;53.33;44.67;;;;;6.70;92.02;103646.44;5015577;28;46150;-67
2022/01/18 08:56:30;;;;;;;;;55.33;44.00;;;;;6.78;91.25;103655.50;5015779;28;45430;-67
2022/01/18 08:58:57;;;;;;;;;61.67;45.33;;;;;6.75;91.60;103642.28;4997909;28;45316;-67
2022/01/18 09:01:23;;;;;;;;;52.67;42.67;;;;;6.66;91.64;103606.97;5015599;28;45403;-68
2022/01/18 09:03:50;;;;;;;;;59.00;49.33;;;;;6.90;91.57;103646.34;5015581;28;45710;-68
2022/01/18 09:06:18;;;;;;;;;53.67;43.00;;;;;6.92;91.18;103642.94;5015559;28;45453;-68
2022/01/18 09:08:45;;;;;;;;;57.33;45.00;;;;;6.93;91.20;103628.13;5015492;28;45351;-68
2022/01/18 09:11:11;;;;;;;;;57.00;42.33;;;;;6.99;91.25;103630.09;5015603;28;45228;-68
2022/01/18 09:13:39;;;;;;;;;55.00;41.67;;;;;7.08;90.97;103638.31;5015185;28;47389;-67
2022/01/18 09:16:06;;;;;;;;;60.00;45.00;;;;;7.02;90.76;103624.97;5015161;28;45289;-67
2022/01/18 09:18:34;;;;;;;;;60.00;46.67;;;;;7.10;90.97;103634.00;5015517;28;45331;-67
2022/01/18 09:20:59;;;;;;;;;62.67;48.33;;;;;7.18;90.60;103632.56;5015554;28;45415;-67
2022/01/18 09:23:25;;;;;;;;;56.00;45.00;;;;;7.17;90.54;103615.06;5014935;28;46217;-67
2022/01/18 09:25:51;;;;;;;;;62.33;46.67;;;;;7.23;89.91;103620.56;5015367;28;45311;-67
2022/01/18 09:28:16;;;;;;;;;61.00;47.33;;;;;7.32;89.97;103630.50;5015493;28;45236;-67
2022/01/18 09:30:42;;;;;;;;;62.67;48.67;;;;;7.33;89.74;103613.91;5015670;28;45301;-67
2022/01/18 09:33:07;;;;;;;;;57.67;47.67;;;;;7.44;89.41;103635.28;5015143;28;46505;-67
2022/01/18 09:35:35;;;;;;;;;58.67;47.00;;;;;7.54;89.73;103642.66;5015316;28;45182;-67
2022/01/18 09:38:00;;;;;;;;;57.67;46.67;;;;;7.59;89.18;103634.94;5015313;28;45399;-67
2022/01/18 09:40:27;;;;;;;;;62.67;46.67;;;;;7.55;88.65;103617.31;5014426;28;45482;-67
2022/01/18 09:42:57;;;;;;;;;68.67;52.67;;;;;7.86;88.41;103640.31;5015245;28;46188;-68
2022/01/18 09:45:25;;;;;;;;;72.00;54.75;;;;;8.10;87.00;103634.13;5014880;28;45841;-67
2022/01/18 09:47:53;;;;;;;;;66.67;50.33;;;;;8.07;86.97;103629.66;5014844;28;45491;-67
2022/01/18 09:50:21;;;;;;;;;62.67;50.33;;;;;8.01;86.30;103627.69;5013736;28;45486;-67
2022/01/18 09:52:52;;;;;;;;;80.50;64.25;;;;;8.00;86.79;103628.56;5014655;28;45662;-67
2022/01/18 09:55:25;;;;;;;;;68.00;53.33;;;;;8.01;86.25;103616.31;5014507;28;45372;-67
2022/01/18 09:57:51;;;;;;;;;53.00;37.00;;;;;8.34;86.62;103628.81;5014889;28;45442;-68
2022/01/18 10:00:19;;;;;;;;;60.00;46.00;;;;;8.72;85.04;103631.81;5015039;28;45288;-68
2022/01/18 10:02:44;;;;;;;;;66.33;51.67;;;;;9.19;82.17;103615.72;5014499;28;46184;-68
2022/01/18 10:05:27;;;;;;;;;69.67;52.00;;;;;9.45;80.43;103624.34;5014692;28;45367;-67
2022/01/18 10:08:06;;;;;;;;;65.67;49.33;;;;;9.56;80.55;103632.56;5015004;28;45367;-68
2022/01/18 10:10:41;;;;;;;;;68.67;51.00;;;;;9.29;79.98;103636.16;5014299;28;45323;-68
2022/01/18 10:13:08;;;;;;;;;69.00;51.67;;;;;9.03;80.22;103631.03;5014528;28;45241;-67
2022/01/18 10:15:34;;;;;;;;;58.67;44.33;;;;;8.82;83.16;103626.00;5014814;28;45456;-68
2022/01/18 10:18:08;;;;;;;;;63.00;49.00;;;;;8.62;82.40;103630.63;5014486;28;45286;-68
2022/01/18 10:20:52;;;;;;;;;60.00;47.67;;;;;8.56;82.85;103642.69;5015141;28;45295;-67
2022/01/18 10:23:24;;;;;;;;;65.33;48.00;;;;;8.40;83.16;103636.00;5014220;28;45377;-67
2022/01/18 10:25:51;;;;;;;;;60.67;48.00;;;;;8.45;83.44;103647.56;5014677;28;45310;-67
2022/01/18 10:28:43;;;;;;;;;60.67;49.00;;;;;8.48;84.03;103631.91;5014681;28;46196;-67
2022/01/18 10:31:45;;;;;;;;;64.00;50.33;;;;;8.56;84.26;103635.69;5012324;28;45409;-67
2022/01/18 10:34:21;;;;;;;;;63.00;49.67;;;;;8.75;84.19;103625.78;5014344;28;45326;-67
2022/01/18 10:36:55;;;;;;;;;62.00;48.00;;;;;8.86;84.04;103619.13;5014210;28;45457;-67
2022/01/18 10:39:23;;;;;;;;;63.67;50.00;;;;;9.12;83.10;103624.25;5014599;28;45472;-67
2022/01/18 10:41:49;;;;;;;;;61.67;49.00;;;;;9.26;82.39;103622.94;5014657;28;45386;-67
2022/01/18 10:44:15;;;;;;;;;63.67;47.67;;;;;9.29;82.54;103607.25;5014222;28;46296;-67
2022/01/18 10:46:56;;;;;;;;;61.67;51.00;;;;;9.40;81.90;103611.06;5014268;28;46022;-67
2022/01/18 10:49:29;;;;;;;;;62.67;48.00;;;;;9.40;81.36;103604.94;5014168;28;45334;-67
2022/01/18 10:52:02;;;;;;;;;57.00;45.00;;;;;9.44;80.52;103612.06;5014590;28;45307;-67
2022/01/18 10:54:46;;;;;;;;;68.67;49.00;;;;;9.23;81.86;103555.38;5013891;28;47174;-67
2022/01/18 10:57:23;;;;;;;;;62.00;49.33;;;;;9.40;80.85;103599.66;5014056;28;45504;-67
2022/01/18 11:00:01;;;;;;;;;56.67;45.33;;;;;9.26;80.94;103603.66;5014273;28;45430;-67
2022/01/18 11:02:26;;;;;;;;;64.67;49.67;;;;;9.12;81.67;103601.50;5014136;28;45510;-67
2022/01/18 11:04:54;;;;;;;;;61.67;49.00;;;;;9.11;82.23;103588.31;5013879;28;45979;-67
2022/01/18 11:07:25;;;;;;;;;66.00;49.67;;;;;9.17;82.29;103586.75;5014124;28;45409;-67
2022/01/18 11:09:51;;;;;;;;;66.00;52.67;;;;;9.04;82.17;103581.97;5014110;28;45391;-68
2022/01/18 11:12:24;;;;;;;;;69.00;52.33;;;;;9.12;82.47;103590.09;5014090;28;45318;-67
2022/01/18 11:15:00;;;;;;;;;74.25;54.75;;;;;8.94;82.37;103551.03;5013730;28;46356;-67
2022/01/18 11:17:27;;;;;;;;;62.33;48.00;;;;;9.11;82.48;103570.81;5013673;28;45535;-67
2022/01/18 11:19:55;;;;;;;;;54.67;43.00;;;;;9.05;82.79;103566.25;5013856;28;45415;-67
2022/01/18 11:22:24;;;;;;;;;56.00;46.33;;;;;8.99;82.56;103562.53;5015816;28;45415;-67
2022/01/18 11:24:50;;;;;;;;;52.67;43.00;;;;;8.99;83.13;103566.09;5016854;28;46031;-67
2022/01/18 11:27:18;;;;;;;;;54.00;43.00;;;;;8.95;82.92;103558.06;5016778;28;45289;-67
2022/01/18 11:29:49;;;;;;;;;55.00;43.33;;;;;8.91;82.80;103559.69;5016753;28;45510;-68
2022/01/18 11:32:17;;;;;;;;;58.00;43.00;;;;;8.89;83.08;103566.66;5017042;28;45477;-67
2022/01/18 11:34:49;;;;;;;;;57.00;44.00;;;;;8.93;83.42;103560.66;5016599;28;45479;-67
2022/01/18 11:37:22;;;;;;;;;51.67;42.33;;;;;8.85;83.74;103547.28;5016456;28;45247;-67
2022/01/18 11:39:57;;;;;;;;;59.33;45.00;;;;;9.04;83.79;103561.84;5016983;28;45315;-68
2022/01/18 11:42:23;;;;;;;;;48.67;37.00;;;;;9.08;83.25;103549.69;5016899;28;45370;-67
2022/01/18 11:44:48;;;;;;;;;58.33;43.67;;;;;9.08;82.65;103533.91;5016347;28;46023;-67
2022/01/18 11:47:26;;;;;;;;;56.67;40.67;;;;;9.31;82.51;103555.59;5016614;28;45276;-67
2022/01/18 11:49:52;;;;;;;;;46.67;37.00;;;;;9.42;80.94;103545.38;5016725;28;45420;-67
2022/01/18 11:52:34;;;;;;;;;50.00;40.00;;;;;9.58;81.00;103538.78;5016770;28;45371;-67
2022/01/18 11:55:00;;;;;;;;;58.00;44.33;;;;;9.72;81.55;103540.03;5016437;28;46447;-67
2022/01/18 11:57:27;;;;;;;;;54.33;41.67;;;;;9.88;81.26;103538.69;5016334;28;45575;-67
2022/01/18 11:59:53;;;;;;;;;57.00;44.67;;;;;10.00;80.50;103537.22;5016419;28;46024;-67
2022/01/18 12:02:30;;;;;;;;;45.00;37.00;;;;;10.08;79.50;103531.28;4998707;28;45524;-67
2022/01/18 12:04:58;;;;;;;;;59.33;43.67;;;;;10.20;78.78;103527.19;5016281;28;47030;-68
2022/01/18 12:07:36;;;;;;;;;50.67;39.33;;;;;10.18;78.41;103524.50;4998523;28;45346;-68
2022/01/18 12:10:26;;;;;;;;;47.67;39.33;;;;;10.15;79.28;103521.81;5016484;28;45318;-65
2022/01/18 12:12:53;;;;;;;;;50.33;38.33;;;;;10.03;79.42;103516.22;5016501;28;45207;-65
2022/01/18 12:15:18;;;;;;;;;51.00;39.00;;;;;10.04;79.06;103525.91;5016133;28;45266;-65
2022/01/18 12:18:02;;;;;;;;;58.33;46.67;;;;;10.08;79.55;103515.50;5015850;28;45318;-65
2022/01/18 12:20:46;;;;;;;;;49.33;41.00;;;;;10.11;78.90;103522.59;5016383;28;45372;-65
2022/01/18 12:23:14;;;;;;;;;50.33;40.33;;;;;9.99;78.87;103520.53;5016282;28;45171;-65
2022/01/18 12:37:11;;;;;;;;;49.67;37.67;;;;;9.35;80.92;103506.59;5015712;28;46203;-65
2022/01/18 12:40:05;;;;;;;;;62.00;43.00;;;;;9.24;81.39;103506.31;5016006;28;45451;-65
2022/01/18 12:45:27;;;;;;;;;59.00;43.00;;;;;9.13;82.25;103498.13;5016173;28;45364;-65
2022/01/18 12:47:58;;;;;;;;;55.67;44.00;;;;;9.13;82.38;103502.50;5015734;28;46177;-65
2022/01/18 12:50:45;;;;;;;;;64.00;49.00;;;;;9.11;83.03;103498.97;5015612;28;45320;-65
2022/01/18 12:53:13;;;;;;;;;51.67;40.67;;;;;9.05;82.59;103492.66;5030944;27;45414;-65
2022/01/18 12:55:46;;;;;;;;;51.33;40.00;;;;;9.06;82.35;103490.91;5015963;28;45377;-65
2022/01/18 12:58:16;;;;;;;;;58.33;39.33;;;;;8.88;81.94;103475.53;5015561;28;45281;-65
2022/01/18 13:00:48;;;;;;;;;55.33;41.67;;;;;8.85;82.45;103465.81;5015656;28;45217;-65